sensor_id;sensor_type;location;lat;lon;timestamp;temperature;humidity
18880;DHT22;9572;52.378;13.404;2023-03-23T00:01:06;11.10;99.90
18880;DHT22;9572;52.378;13.404;2023-03-23T00:03:35;11.10;99.90
18880;DHT22;9572;52.378;13.404;2023-03-23T00:06:03;11.00;99.90
18880;DHT22;9572;52.378;13.404;2023-03-23T00:08:32;11.00;99.90
18880;DHT22;9572;52.378;13.404;2023-03-23T00:11:03;10.90;99.90
18880;DHT22;9572;52.378;13.404;2023-03-23T00:13:31;10.90;99.90
18880;DHT22;9572;52.378;13.404;2023-03-23T00:15:58;10.80;99.90
18880;DHT22;9572;52.378;13.404;2023-03-23T00:18:25;10.70;99.90
18880;DHT22;9572;52.378;13.404;2023-03-23T00:20:54;10.70;99.90
18880;DHT22;9572;52.378;13.404;2023-03-23T00:23:22;10.60;99.90
18880;DHT22;9572;52.378;13.404;2023-03-23T00:25:51;10.60;99.90
18880;DHT22;9572;52.378;13.404;2023-03-23T00:28:22;10.50;99.90
18880;DHT22;9572;52.378;13.404;2023-03-23T00:30:56;10.50;99.90
18880;DHT22;9572;52.378;13.404;2023-03-23T00:33:23;10.50;99.90
18880;DHT22;9572;52.378;13.404;2023-03-23T00:35:52;10.40;99.90
18880;DHT22;9572;52.378;13.404;2023-03-23T00:38:19;10.40;99.90
18880;DHT22;9572;52.378;13.404;2023-03-23T00:40:47;10.40;99.90
18880;DHT22;9572;52.378;13.404;2023-03-23T00:43:14;10.30;99.90
18880;DHT22;9572;52.378;13.404;2023-03-23T00:45:41;10.30;99.90
18880;DHT22;9572;52.378;13.404;2023-03-23T00:48:11;10.30;99.90
18880;DHT22;9572;52.378;13.404;2023-03-23T00:50:38;10.20;99.90
18880;DHT22;9572;52.378;13.404;2023-03-23T00:53:06;10.20;99.90
18880;DHT22;9572;52.378;13.404;2023-03-23T00:55:33;10.20;99.90
18880;DHT22;9572;52.378;13.404;2023-03-23T00:58:00;10.20;99.90
18880;DHT22;9572;52.378;13.404;2023-03-23T01:00:27;10.20;99.90
18880;DHT22;9572;52.378;13.404;2023-03-23T01:02:54;10.20;99.90
18880;DHT22;9572;52.378;13.404;2023-03-23T01:05:22;10.10;99.90
18880;DHT22;9572;52.378;13.404;2023-03-23T01:07:49;10.10;99.90
18880;DHT22;9572;52.378;13.404;2023-03-23T01:10:16;10.10;99.90
18880;DHT22;9572;52.378;13.404;2023-03-23T01:12:44;10.00;99.90
18880;DHT22;9572;52.378;13.404;2023-03-23T01:15:14;10.00;99.90
18880;DHT22;9572;52.378;13.404;2023-03-23T01:17:41;10.00;99.90
18880;DHT22;9572;52.378;13.404;2023-03-23T01:20:09;10.00;99.90
18880;DHT22;9572;52.378;13.404;2023-03-23T01:22:37;9.90;99.90
18880;DHT22;9572;52.378;13.404;2023-03-23T01:25:05;9.90;99.90
18880;DHT22;9572;52.378;13.404;2023-03-23T01:27:33;9.90;99.90
18880;DHT22;9572;52.378;13.404;2023-03-23T01:30:00;9.80;99.90
18880;DHT22;9572;52.378;13.404;2023-03-23T01:32:27;9.80;99.90
18880;DHT22;9572;52.378;13.404;2023-03-23T01:34:54;9.80;99.90
18880;DHT22;9572;52.378;13.404;2023-03-23T01:37:21;9.80;99.90
18880;DHT22;9572;52.378;13.404;2023-03-23T01:39:53;9.70;99.90
18880;DHT22;9572;52.378;13.404;2023-03-23T01:42:22;9.70;99.90
18880;DHT22;9572;52.378;13.404;2023-03-23T01:48:00;9.60;99.90
18880;DHT22;9572;52.378;13.404;2023-03-23T01:50:30;9.60;99.90
18880;DHT22;9572;52.378;13.404;2023-03-23T01:53:01;9.60;99.90
18880;DHT22;9572;52.378;13.404;2023-03-23T01:55:30;9.60;99.90
18880;DHT22;9572;52.378;13.404;2023-03-23T01:57:57;9.60;99.90
18880;DHT22;9572;52.378;13.404;2023-03-23T02:00:25;9.60;99.90
18880;DHT22;9572;52.378;13.404;2023-03-23T02:02:52;9.60;99.90
18880;DHT22;9572;52.378;13.404;2023-03-23T02:05:26;9.60;99.90
18880;DHT22;9572;52.378;13.404;2023-03-23T02:07:57;9.70;99.90
18880;DHT22;9572;52.378;13.404;2023-03-23T02:10:30;9.70;99.90
18880;DHT22;9572;52.378;13.404;2023-03-23T02:12:58;9.70;99.90
18880;DHT22;9572;52.378;13.404;2023-03-23T02:15:30;9.80;99.90
18880;DHT22;9572;52.378;13.404;2023-03-23T02:18:04;9.80;99.90
18880;DHT22;9572;52.378;13.404;2023-03-23T02:20:52;9.70;99.90
18880;DHT22;9572;52.378;13.404;2023-03-23T02:23:41;9.70;99.90
18880;DHT22;9572;52.378;13.404;2023-03-23T02:26:26;9.70;99.90
18880;DHT22;9572;52.378;13.404;2023-03-23T02:29:21;9.80;99.90
18880;DHT22;9572;52.378;13.404;2023-03-23T02:32:07;9.80;99.90
18880;DHT22;9572;52.378;13.404;2023-03-23T02:34:40;9.90;99.90
18880;DHT22;9572;52.378;13.404;2023-03-23T02:37:10;10.00;99.90
18880;DHT22;9572;52.378;13.404;2023-03-23T02:39:43;10.20;99.90
18880;DHT22;9572;52.378;13.404;2023-03-23T02:42:14;10.40;99.90
18880;DHT22;9572;52.378;13.404;2023-03-23T02:44:44;10.50;99.90
18880;DHT22;9572;52.378;13.404;2023-03-23T02:47:15;10.60;99.90
18880;DHT22;9572;52.378;13.404;2023-03-23T02:49:46;10.60;99.90
18880;DHT22;9572;52.378;13.404;2023-03-23T02:52:19;10.70;99.90
18880;DHT22;9572;52.378;13.404;2023-03-23T02:54:48;10.70;99.90
18880;DHT22;9572;52.378;13.404;2023-03-23T02:57:15;10.80;99.90
18880;DHT22;9572;52.378;13.404;2023-03-23T02:59:42;11.00;99.90
18880;DHT22;9572;52.378;13.404;2023-03-23T03:02:12;11.00;99.90
18880;DHT22;9572;52.378;13.404;2023-03-23T03:04:47;11.00;99.90
18880;DHT22;9572;52.378;13.404;2023-03-23T03:07:42;11.00;99.90
18880;DHT22;9572;52.378;13.404;2023-03-23T03:10:19;11.00;99.90
18880;DHT22;9572;52.378;13.404;2023-03-23T03:12:53;11.10;99.90
18880;DHT22;9572;52.378;13.404;2023-03-23T03:15:29;11.20;99.90
18880;DHT22;9572;52.378;13.404;2023-03-23T03:18:03;11.10;99.90
18880;DHT22;9572;52.378;13.404;2023-03-23T03:20:36;11.20;99.90
18880;DHT22;9572;52.378;13.404;2023-03-23T03:23:05;11.20;99.90
18880;DHT22;9572;52.378;13.404;2023-03-23T03:25:35;11.20;99.90
18880;DHT22;9572;52.378;13.404;2023-03-23T03:28:02;11.20;99.90
18880;DHT22;9572;52.378;13.404;2023-03-23T03:30:34;11.20;99.90
18880;DHT22;9572;52.378;13.404;2023-03-23T03:33:03;11.20;99.90
18880;DHT22;9572;52.378;13.404;2023-03-23T03:35:30;11.30;99.90
18880;DHT22;9572;52.378;13.404;2023-03-23T03:38:06;11.20;99.90
18880;DHT22;9572;52.378;13.404;2023-03-23T03:40:34;11.20;99.90
18880;DHT22;9572;52.378;13.404;2023-03-23T03:43:01;11.30;99.90
18880;DHT22;9572;52.378;13.404;2023-03-23T03:45:28;11.20;99.90
18880;DHT22;9572;52.378;13.404;2023-03-23T03:47:55;11.20;99.90
18880;DHT22;9572;52.378;13.404;2023-03-23T03:50:22;11.20;99.90
18880;DHT22;9572;52.378;13.404;2023-03-23T03:52:50;11.10;99.90
18880;DHT22;9572;52.378;13.404;2023-03-23T03:55:18;11.10;99.90
18880;DHT22;9572;52.378;13.404;2023-03-23T03:57:45;11.10;99.90
18880;DHT22;9572;52.378;13.404;2023-03-23T04:00:13;11.20;99.90
18880;DHT22;9572;52.378;13.404;2023-03-23T04:02:44;11.30;99.90
18880;DHT22;9572;52.378;13.404;2023-03-23T04:05:13;11.20;99.90
18880;DHT22;9572;52.378;13.404;2023-03-23T04:07:40;11.20;99.90
18880;DHT22;9572;52.378;13.404;2023-03-23T04:10:08;11.10;99.90
18880;DHT22;9572;52.378;13.404;2023-03-23T04:12:38;11.10;99.90
18880;DHT22;9572;52.378;13.404;2023-03-23T04:15:06;11.00;99.90
18880;DHT22;9572;52.378;13.404;2023-03-23T04:17:33;11.00;99.90
18880;DHT22;9572;52.378;13.404;2023-03-23T04:20:00;11.00;99.90
18880;DHT22;9572;52.378;13.404;2023-03-23T04:22:37;11.00;99.90
18880;DHT22;9572;52.378;13.404;2023-03-23T04:25:04;11.00;99.90
18880;DHT22;9572;52.378;13.404;2023-03-23T04:27:32;11.10;99.90
18880;DHT22;9572;52.378;13.404;2023-03-23T04:30:01;11.10;99.90
18880;DHT22;9572;52.378;13.404;2023-03-23T04:32:28;11.10;99.90
18880;DHT22;9572;52.378;13.404;2023-03-23T04:34:56;11.00;99.90
18880;DHT22;9572;52.378;13.404;2023-03-23T04:37:24;10.90;99.90
18880;DHT22;9572;52.378;13.404;2023-03-23T04:39:54;10.90;99.90
18880;DHT22;9572;52.378;13.404;2023-03-23T04:42:27;10.90;99.90
18880;DHT22;9572;52.378;13.404;2023-03-23T04:44:55;10.80;99.90
18880;DHT22;9572;52.378;13.404;2023-03-23T04:47:24;10.80;99.90
18880;DHT22;9572;52.378;13.404;2023-03-23T04:49:55;10.90;99.90
18880;DHT22;9572;52.378;13.404;2023-03-23T04:52:22;11.00;99.90
18880;DHT22;9572;52.378;13.404;2023-03-23T04:54:50;11.00;99.90
18880;DHT22;9572;52.378;13.404;2023-03-23T04:57:17;11.00;99.90
18880;DHT22;9572;52.378;13.404;2023-03-23T04:59:44;11.00;99.90
18880;DHT22;9572;52.378;13.404;2023-03-23T05:02:11;11.00;99.90
18880;DHT22;9572;52.378;13.404;2023-03-23T05:04:40;11.10;99.90
18880;DHT22;9572;52.378;13.404;2023-03-23T05:07:07;11.40;99.90
18880;DHT22;9572;52.378;13.404;2023-03-23T05:09:34;11.50;99.90
18880;DHT22;9572;52.378;13.404;2023-03-23T05:12:04;11.60;99.90
18880;DHT22;9572;52.378;13.404;2023-03-23T05:14:31;11.50;99.90
18880;DHT22;9572;52.378;13.404;2023-03-23T05:16:58;11.40;99.90
18880;DHT22;9572;52.378;13.404;2023-03-23T05:19:25;11.40;99.90
18880;DHT22;9572;52.378;13.404;2023-03-23T05:21:57;11.40;99.90
18880;DHT22;9572;52.378;13.404;2023-03-23T05:24:29;11.30;99.90
18880;DHT22;9572;52.378;13.404;2023-03-23T05:26:58;11.30;99.90
18880;DHT22;9572;52.378;13.404;2023-03-23T05:29:25;11.30;99.90
18880;DHT22;9572;52.378;13.404;2023-03-23T05:31:55;11.50;99.90
18880;DHT22;9572;52.378;13.404;2023-03-23T05:34:25;11.40;99.90
18880;DHT22;9572;52.378;13.404;2023-03-23T05:36:53;11.40;99.90
18880;DHT22;9572;52.378;13.404;2023-03-23T05:39:21;11.30;99.90
18880;DHT22;9572;52.378;13.404;2023-03-23T05:41:48;11.40;99.90
18880;DHT22;9572;52.378;13.404;2023-03-23T05:44:14;11.30;99.90
18880;DHT22;9572;52.378;13.404;2023-03-23T05:46:41;11.30;99.90
18880;DHT22;9572;52.378;13.404;2023-03-23T05:49:08;11.20;99.90
18880;DHT22;9572;52.378;13.404;2023-03-23T05:51:35;11.10;99.90
18880;DHT22;9572;52.378;13.404;2023-03-23T05:54:04;11.10;99.90
18880;DHT22;9572;52.378;13.404;2023-03-23T05:56:31;11.10;99.90
18880;DHT22;9572;52.378;13.404;2023-03-23T05:58:58;11.30;99.90
18880;DHT22;9572;52.378;13.404;2023-03-23T06:01:25;11.40;99.90
18880;DHT22;9572;52.378;13.404;2023-03-23T06:03:51;11.40;99.90
18880;DHT22;9572;52.378;13.404;2023-03-23T06:06:19;11.40;99.90
18880;DHT22;9572;52.378;13.404;2023-03-23T06:08:46;11.40;99.90
18880;DHT22;9572;52.378;13.404;2023-03-23T06:11:17;11.40;99.90
18880;DHT22;9572;52.378;13.404;2023-03-23T06:13:44;11.40;99.90
18880;DHT22;9572;52.378;13.404;2023-03-23T06:16:11;11.20;99.90
18880;DHT22;9572;52.378;13.404;2023-03-23T06:18:38;11.20;99.90
18880;DHT22;9572;52.378;13.404;2023-03-23T06:21:06;11.20;99.90
18880;DHT22;9572;52.378;13.404;2023-03-23T06:23:34;11.10;99.90
18880;DHT22;9572;52.378;13.404;2023-03-23T06:26:05;11.10;99.90
18880;DHT22;9572;52.378;13.404;2023-03-23T06:28:34;11.10;99.90
18880;DHT22;9572;52.378;13.404;2023-03-23T06:31:01;11.20;99.90
18880;DHT22;9572;52.378;13.404;2023-03-23T06:33:30;11.10;99.90
18880;DHT22;9572;52.378;13.404;2023-03-23T06:35:57;11.10;99.90
18880;DHT22;9572;52.378;13.404;2023-03-23T06:38:25;11.10;99.90
18880;DHT22;9572;52.378;13.404;2023-03-23T06:40:52;11.00;99.90
18880;DHT22;9572;52.378;13.404;2023-03-23T06:43:19;11.00;99.90
18880;DHT22;9572;52.378;13.404;2023-03-23T06:45:48;11.10;99.90
18880;DHT22;9572;52.378;13.404;2023-03-23T06:48:15;11.00;99.90
18880;DHT22;9572;52.378;13.404;2023-03-23T06:50:43;11.00;99.90
18880;DHT22;9572;52.378;13.404;2023-03-23T06:53:11;11.00;99.90
18880;DHT22;9572;52.378;13.404;2023-03-23T06:55:38;11.10;99.90
18880;DHT22;9572;52.378;13.404;2023-03-23T06:58:05;11.10;99.90
18880;DHT22;9572;52.378;13.404;2023-03-23T07:00:32;11.10;99.90
18880;DHT22;9572;52.378;13.404;2023-03-23T07:03:00;11.10;99.90
18880;DHT22;9572;52.378;13.404;2023-03-23T07:05:28;11.30;99.90
18880;DHT22;9572;52.378;13.404;2023-03-23T07:07:55;11.30;99.90
18880;DHT22;9572;52.378;13.404;2023-03-23T07:10:22;11.30;99.90
18880;DHT22;9572;52.378;13.404;2023-03-23T07:12:49;11.30;99.90
18880;DHT22;9572;52.378;13.404;2023-03-23T07:15:16;11.30;99.90
18880;DHT22;9572;52.378;13.404;2023-03-23T07:17:43;11.30;99.90
18880;DHT22;9572;52.378;13.404;2023-03-23T07:20:12;11.30;99.90
18880;DHT22;9572;52.378;13.404;2023-03-23T07:22:40;11.30;99.90
18880;DHT22;9572;52.378;13.404;2023-03-23T07:25:07;11.30;99.90
18880;DHT22;9572;52.378;13.404;2023-03-23T07:27:34;11.20;99.90
18880;DHT22;9572;52.378;13.404;2023-03-23T07:30:01;11.20;99.90
18880;DHT22;9572;52.378;13.404;2023-03-23T07:32:28;11.20;99.90
18880;DHT22;9572;52.378;13.404;2023-03-23T07:34:55;11.20;99.90
18880;DHT22;9572;52.378;13.404;2023-03-23T07:37:24;11.20;99.90
18880;DHT22;9572;52.378;13.404;2023-03-23T07:39:50;11.30;99.90
18880;DHT22;9572;52.378;13.404;2023-03-23T07:42:18;11.30;99.90
18880;DHT22;9572;52.378;13.404;2023-03-23T07:44:44;11.30;99.90
18880;DHT22;9572;52.378;13.404;2023-03-23T07:47:11;11.30;99.90
18880;DHT22;9572;52.378;13.404;2023-03-23T07:49:38;11.40;99.90
18880;DHT22;9572;52.378;13.404;2023-03-23T07:52:05;11.40;99.90
18880;DHT22;9572;52.378;13.404;2023-03-23T07:54:33;11.50;99.90
18880;DHT22;9572;52.378;13.404;2023-03-23T07:57:00;11.60;99.90
18880;DHT22;9572;52.378;13.404;2023-03-23T07:59:27;11.50;99.90
18880;DHT22;9572;52.378;13.404;2023-03-23T08:01:54;11.60;99.90
18880;DHT22;9572;52.378;13.404;2023-03-23T08:04:23;11.50;99.90
18880;DHT22;9572;52.378;13.404;2023-03-23T08:06:50;11.60;99.90
18880;DHT22;9572;52.378;13.404;2023-03-23T08:09:17;11.60;99.90
18880;DHT22;9572;52.378;13.404;2023-03-23T08:11:45;11.60;99.90
18880;DHT22;9572;52.378;13.404;2023-03-23T08:14:13;11.70;99.90
18880;DHT22;9572;52.378;13.404;2023-03-23T08:16:40;11.70;99.90
18880;DHT22;9572;52.378;13.404;2023-03-23T08:19:07;11.90;99.90
18880;DHT22;9572;52.378;13.404;2023-03-23T08:21:34;11.90;99.90
18880;DHT22;9572;52.378;13.404;2023-03-23T08:24:01;11.90;99.90
18880;DHT22;9572;52.378;13.404;2023-03-23T08:26:28;12.00;99.90
18880;DHT22;9572;52.378;13.404;2023-03-23T08:28:56;12.10;99.90
18880;DHT22;9572;52.378;13.404;2023-03-23T08:31:23;12.10;99.90
18880;DHT22;9572;52.378;13.404;2023-03-23T08:33:50;12.20;99.90
18880;DHT22;9572;52.378;13.404;2023-03-23T08:36:17;12.20;99.90
18880;DHT22;9572;52.378;13.404;2023-03-23T08:38:44;12.20;99.90
18880;DHT22;9572;52.378;13.404;2023-03-23T08:41:11;12.20;99.90
18880;DHT22;9572;52.378;13.404;2023-03-23T08:43:38;12.30;99.90
18880;DHT22;9572;52.378;13.404;2023-03-23T08:46:07;12.30;99.90
18880;DHT22;9572;52.378;13.404;2023-03-23T08:48:36;12.30;99.90
18880;DHT22;9572;52.378;13.404;2023-03-23T08:51:04;12.30;99.90
18880;DHT22;9572;52.378;13.404;2023-03-23T08:53:32;12.30;99.90
18880;DHT22;9572;52.378;13.404;2023-03-23T08:56:03;12.30;99.90
18880;DHT22;9572;52.378;13.404;2023-03-23T08:58:31;12.30;99.90
18880;DHT22;9572;52.378;13.404;2023-03-23T09:00:58;12.40;99.90
18880;DHT22;9572;52.378;13.404;2023-03-23T09:03:27;12.50;99.90
18880;DHT22;9572;52.378;13.404;2023-03-23T09:05:57;12.60;99.90
18880;DHT22;9572;52.378;13.404;2023-03-23T09:08:25;12.60;99.90
18880;DHT22;9572;52.378;13.404;2023-03-23T09:10:52;12.70;99.90
18880;DHT22;9572;52.378;13.404;2023-03-23T09:13:18;12.80;99.90
18880;DHT22;9572;52.378;13.404;2023-03-23T09:15:46;12.90;99.90
18880;DHT22;9572;52.378;13.404;2023-03-23T09:18:13;12.90;99.90
18880;DHT22;9572;52.378;13.404;2023-03-23T09:20:41;12.90;99.90
18880;DHT22;9572;52.378;13.404;2023-03-23T09:23:09;13.00;99.90
18880;DHT22;9572;52.378;13.404;2023-03-23T09:25:36;13.00;99.90
18880;DHT22;9572;52.378;13.404;2023-03-23T09:28:03;13.00;99.90
18880;DHT22;9572;52.378;13.404;2023-03-23T09:30:31;13.10;99.90
18880;DHT22;9572;52.378;13.404;2023-03-23T09:33:00;13.10;99.90
18880;DHT22;9572;52.378;13.404;2023-03-23T09:35:28;13.20;99.90
18880;DHT22;9572;52.378;13.404;2023-03-23T09:37:57;13.20;99.90
18880;DHT22;9572;52.378;13.404;2023-03-23T09:40:29;13.20;99.90
18880;DHT22;9572;52.378;13.404;2023-03-23T09:43:06;13.30;99.90
18880;DHT22;9572;52.378;13.404;2023-03-23T09:45:40;13.40;99.90
18880;DHT22;9572;52.378;13.404;2023-03-23T09:48:26;13.50;99.90
18880;DHT22;9572;52.378;13.404;2023-03-23T09:51:04;13.60;99.90
18880;DHT22;9572;52.378;13.404;2023-03-23T09:53:38;13.80;99.90
18880;DHT22;9572;52.378;13.404;2023-03-23T09:56:11;13.90;99.90
18880;DHT22;9572;52.378;13.404;2023-03-23T09:58:45;14.00;99.90
18880;DHT22;9572;52.378;13.404;2023-03-23T10:01:17;14.00;99.90
18880;DHT22;9572;52.378;13.404;2023-03-23T10:03:47;14.10;99.90
18880;DHT22;9572;52.378;13.404;2023-03-23T10:06:16;14.10;99.90
18880;DHT22;9572;52.378;13.404;2023-03-23T10:08:49;14.10;99.90
18880;DHT22;9572;52.378;13.404;2023-03-23T10:11:24;14.10;99.90
18880;DHT22;9572;52.378;13.404;2023-03-23T10:14:22;14.10;99.90
18880;DHT22;9572;52.378;13.404;2023-03-23T10:16:58;14.20;99.90
18880;DHT22;9572;52.378;13.404;2023-03-23T10:19:31;14.20;99.90
18880;DHT22;9572;52.378;13.404;2023-03-23T10:22:04;14.20;99.90
18880;DHT22;9572;52.378;13.404;2023-03-23T10:24:35;14.10;99.90
18880;DHT22;9572;52.378;13.404;2023-03-23T10:27:11;14.10;99.90
18880;DHT22;9572;52.378;13.404;2023-03-23T10:29:42;14.20;99.90
18880;DHT22;9572;52.378;13.404;2023-03-23T10:32:15;14.30;99.90
18880;DHT22;9572;52.378;13.404;2023-03-23T10:34:46;14.20;99.90
18880;DHT22;9572;52.378;13.404;2023-03-23T10:37:18;14.30;99.90
18880;DHT22;9572;52.378;13.404;2023-03-23T10:39:51;14.40;99.90
18880;DHT22;9572;52.378;13.404;2023-03-23T10:42:24;14.50;99.90
18880;DHT22;9572;52.378;13.404;2023-03-23T10:44:52;14.60;99.90
18880;DHT22;9572;52.378;13.404;2023-03-23T10:47:19;14.60;99.90
18880;DHT22;9572;52.378;13.404;2023-03-23T10:49:49;14.70;99.90
18880;DHT22;9572;52.378;13.404;2023-03-23T10:52:28;14.60;99.90
18880;DHT22;9572;52.378;13.404;2023-03-23T10:55:04;14.60;99.90
18880;DHT22;9572;52.378;13.404;2023-03-23T10:57:33;14.50;99.90
18880;DHT22;9572;52.378;13.404;2023-03-23T11:00:04;14.50;99.90
18880;DHT22;9572;52.378;13.404;2023-03-23T11:02:38;14.40;99.90
18880;DHT22;9572;52.378;13.404;2023-03-23T11:05:15;14.50;99.90
18880;DHT22;9572;52.378;13.404;2023-03-23T11:07:48;14.60;99.90
18880;DHT22;9572;52.378;13.404;2023-03-23T11:10:23;14.60;99.90
18880;DHT22;9572;52.378;13.404;2023-03-23T11:12:51;14.60;99.90
18880;DHT22;9572;52.378;13.404;2023-03-23T11:15:27;14.70;99.90
18880;DHT22;9572;52.378;13.404;2023-03-23T11:17:59;14.70;99.90
18880;DHT22;9572;52.378;13.404;2023-03-23T11:20:28;14.80;99.90
18880;DHT22;9572;52.378;13.404;2023-03-23T11:22:56;14.80;99.90
18880;DHT22;9572;52.378;13.404;2023-03-23T11:25:24;14.80;99.90
18880;DHT22;9572;52.378;13.404;2023-03-23T11:27:52;14.80;99.90
18880;DHT22;9572;52.378;13.404;2023-03-23T11:30:23;14.80;99.90
18880;DHT22;9572;52.378;13.404;2023-03-23T11:32:51;14.80;99.90
18880;DHT22;9572;52.378;13.404;2023-03-23T11:35:21;14.80;99.90
18880;DHT22;9572;52.378;13.404;2023-03-23T11:37:51;14.80;99.90
18880;DHT22;9572;52.378;13.404;2023-03-23T11:40:21;14.90;99.90
18880;DHT22;9572;52.378;13.404;2023-03-23T11:42:58;14.90;99.90
18880;DHT22;9572;52.378;13.404;2023-03-23T11:45:33;14.90;99.90
18880;DHT22;9572;52.378;13.404;2023-03-23T11:48:13;15.00;99.90
18880;DHT22;9572;52.378;13.404;2023-03-23T11:50:49;15.10;99.90
18880;DHT22;9572;52.378;13.404;2023-03-23T11:53:24;15.10;99.90
18880;DHT22;9572;52.378;13.404;2023-03-23T11:56:00;15.30;99.90
18880;DHT22;9572;52.378;13.404;2023-03-23T11:58:29;15.50;99.90
18880;DHT22;9572;52.378;13.404;2023-03-23T12:01:02;15.60;99.90
18880;DHT22;9572;52.378;13.404;2023-03-23T12:03:49;15.60;99.90
18880;DHT22;9572;52.378;13.404;2023-03-23T12:06:24;15.60;99.90
18880;DHT22;9572;52.378;13.404;2023-03-23T12:08:59;15.60;99.90
18880;DHT22;9572;52.378;13.404;2023-03-23T12:11:37;15.70;99.90
18880;DHT22;9572;52.378;13.404;2023-03-23T12:14:18;15.60;99.90
18880;DHT22;9572;52.378;13.404;2023-03-23T12:16:57;15.60;99.90
18880;DHT22;9572;52.378;13.404;2023-03-23T12:19:33;15.70;99.90
18880;DHT22;9572;52.378;13.404;2023-03-23T12:22:09;15.90;99.90
18880;DHT22;9572;52.378;13.404;2023-03-23T12:24:50;16.00;99.90
18880;DHT22;9572;52.378;13.404;2023-03-23T12:27:24;16.10;99.90
18880;DHT22;9572;52.378;13.404;2023-03-23T12:30:13;16.00;99.90
18880;DHT22;9572;52.378;13.404;2023-03-23T12:32:58;16.00;99.90
18880;DHT22;9572;52.378;13.404;2023-03-23T12:35:33;16.00;99.90
18880;DHT22;9572;52.378;13.404;2023-03-23T12:38:23;16.10;99.90
18880;DHT22;9572;52.378;13.404;2023-03-23T12:41:02;16.00;99.90
18880;DHT22;9572;52.378;13.404;2023-03-23T12:43:36;15.90;99.90
18880;DHT22;9572;52.378;13.404;2023-03-23T12:46:22;15.80;99.90
18880;DHT22;9572;52.378;13.404;2023-03-23T12:48:56;15.70;99.90
18880;DHT22;9572;52.378;13.404;2023-03-23T12:51:29;15.80;99.90
18880;DHT22;9572;52.378;13.404;2023-03-23T12:54:03;15.90;99.90
18880;DHT22;9572;52.378;13.404;2023-03-23T12:56:35;16.00;99.90
18880;DHT22;9572;52.378;13.404;2023-03-23T12:59:10;15.90;99.90
18880;DHT22;9572;52.378;13.404;2023-03-23T13:01:43;15.80;99.90
18880;DHT22;9572;52.378;13.404;2023-03-23T13:04:13;15.80;99.90
18880;DHT22;9572;52.378;13.404;2023-03-23T13:06:43;15.90;99.90
18880;DHT22;9572;52.378;13.404;2023-03-23T13:09:15;16.00;99.90
18880;DHT22;9572;52.378;13.404;2023-03-23T13:11:43;16.10;99.90
18880;DHT22;9572;52.378;13.404;2023-03-23T13:14:24;16.40;99.90
18880;DHT22;9572;52.378;13.404;2023-03-23T13:17:02;17.00;99.90
18880;DHT22;9572;52.378;13.404;2023-03-23T13:19:37;17.50;99.90
18880;DHT22;9572;52.378;13.404;2023-03-23T13:22:11;17.30;99.90
18880;DHT22;9572;52.378;13.404;2023-03-23T13:24:51;17.20;99.90
18880;DHT22;9572;52.378;13.404;2023-03-23T13:27:23;17.10;99.90
18880;DHT22;9572;52.378;13.404;2023-03-23T13:29:51;17.10;99.90
18880;DHT22;9572;52.378;13.404;2023-03-23T13:32:20;17.20;99.90
18880;DHT22;9572;52.378;13.404;2023-03-23T13:34:48;17.20;99.90
18880;DHT22;9572;52.378;13.404;2023-03-23T13:37:22;17.20;99.90
18880;DHT22;9572;52.378;13.404;2023-03-23T13:39:52;17.00;99.90
18880;DHT22;9572;52.378;13.404;2023-03-23T13:42:22;16.90;99.90
18880;DHT22;9572;52.378;13.404;2023-03-23T13:45:06;16.90;99.90
18880;DHT22;9572;52.378;13.404;2023-03-23T13:47:41;16.80;99.90
18880;DHT22;9572;52.378;13.404;2023-03-23T13:50:12;16.90;99.90
18880;DHT22;9572;52.378;13.404;2023-03-23T13:52:50;16.90;99.90
18880;DHT22;9572;52.378;13.404;2023-03-23T13:55:29;16.90;99.90
18880;DHT22;9572;52.378;13.404;2023-03-23T13:57:57;16.80;99.90
18880;DHT22;9572;52.378;13.404;2023-03-23T14:00:36;16.70;99.90
18880;DHT22;9572;52.378;13.404;2023-03-23T14:03:12;16.60;99.90
18880;DHT22;9572;52.378;13.404;2023-03-23T14:05:41;16.50;99.90
18880;DHT22;9572;52.378;13.404;2023-03-23T14:08:14;16.60;99.90
18880;DHT22;9572;52.378;13.404;2023-03-23T14:10:50;16.70;99.90
18880;DHT22;9572;52.378;13.404;2023-03-23T14:13:21;16.90;99.90
18880;DHT22;9572;52.378;13.404;2023-03-23T14:15:58;17.00;99.90
18880;DHT22;9572;52.378;13.404;2023-03-23T14:18:32;17.30;99.90
18880;DHT22;9572;52.378;13.404;2023-03-23T14:21:01;17.70;99.90
18880;DHT22;9572;52.378;13.404;2023-03-23T14:23:31;17.80;99.90
18880;DHT22;9572;52.378;13.404;2023-03-23T14:26:01;17.60;99.90
18880;DHT22;9572;52.378;13.404;2023-03-23T14:28:37;17.30;99.90
18880;DHT22;9572;52.378;13.404;2023-03-23T14:31:05;17.00;99.90
18880;DHT22;9572;52.378;13.404;2023-03-23T14:33:38;16.80;99.90
18880;DHT22;9572;52.378;13.404;2023-03-23T14:36:07;16.60;99.90
18880;DHT22;9572;52.378;13.404;2023-03-23T14:38:34;16.50;99.90
18880;DHT22;9572;52.378;13.404;2023-03-23T14:41:03;16.50;99.90
18880;DHT22;9572;52.378;13.404;2023-03-23T14:43:32;16.40;99.90
18880;DHT22;9572;52.378;13.404;2023-03-23T14:46:04;16.30;99.90
18880;DHT22;9572;52.378;13.404;2023-03-23T14:48:32;16.20;99.90
18880;DHT22;9572;52.378;13.404;2023-03-23T14:51:01;16.20;99.90
18880;DHT22;9572;52.378;13.404;2023-03-23T14:53:33;16.10;99.90
18880;DHT22;9572;52.378;13.404;2023-03-23T14:56:04;16.00;99.90
18880;DHT22;9572;52.378;13.404;2023-03-23T14:58:33;16.00;99.90
18880;DHT22;9572;52.378;13.404;2023-03-23T15:01:03;16.00;99.90
18880;DHT22;9572;52.378;13.404;2023-03-23T15:03:35;15.90;99.90
18880;DHT22;9572;52.378;13.404;2023-03-23T15:06:06;16.00;99.90
18880;DHT22;9572;52.378;13.404;2023-03-23T15:08:35;16.10;99.90
18880;DHT22;9572;52.378;13.404;2023-03-23T15:11:06;16.20;99.90
18880;DHT22;9572;52.378;13.404;2023-03-23T15:13:34;16.10;99.90
18880;DHT22;9572;52.378;13.404;2023-03-23T15:16:06;16.00;99.90
18880;DHT22;9572;52.378;13.404;2023-03-23T15:18:36;16.10;99.90
18880;DHT22;9572;52.378;13.404;2023-03-23T15:21:20;16.00;99.90
18880;DHT22;9572;52.378;13.404;2023-03-23T15:23:48;16.10;99.90
18880;DHT22;9572;52.378;13.404;2023-03-23T15:26:28;16.00;99.90
18880;DHT22;9572;52.378;13.404;2023-03-23T15:29:08;16.10;99.90
18880;DHT22;9572;52.378;13.404;2023-03-23T15:31:39;16.10;99.90
18880;DHT22;9572;52.378;13.404;2023-03-23T15:34:19;16.30;99.90
18880;DHT22;9572;52.378;13.404;2023-03-23T15:36:52;16.50;99.90
18880;DHT22;9572;52.378;13.404;2023-03-23T15:39:21;16.50;99.90
18880;DHT22;9572;52.378;13.404;2023-03-23T15:41:49;16.60;99.90
18880;DHT22;9572;52.378;13.404;2023-03-23T15:44:23;16.60;99.90
18880;DHT22;9572;52.378;13.404;2023-03-23T15:46:53;16.60;99.90
18880;DHT22;9572;52.378;13.404;2023-03-23T15:49:23;16.50;99.90
18880;DHT22;9572;52.378;13.404;2023-03-23T15:51:52;16.50;99.90
18880;DHT22;9572;52.378;13.404;2023-03-23T15:54:19;16.40;99.90
18880;DHT22;9572;52.378;13.404;2023-03-23T15:56:46;16.30;99.90